Terminal Aerodrome Forecast
Issued by NWS

Home | Current Version | Previous Version | Text Only | Print | Product List | Glossary On
Versions: 1 2 3 4 5 6 7 8 9 10 11 12 13 14
695
FTUS45 KVEF 220520
TAFDAG
TAF
KDAG 220520Z 2206/2306 27014KT P6SM FEW080 BKN200
     FM221800 26023G31KT P6SM SCT200
     FM222200 26028G37KT P6SM FEW200
     FM230500 25016G23KT P6SM SKC=

USA.gov is the U.S. government's official web portal to all federal, state and local government web resources and services.